In Rescue
 
Open Full Screen Window  High Contrast Mode
Wind Gusting 00 knots
04
November 25, 2020 5:42 AM CST
Present Weather: Mist
Weather Information
Wind Direction
  360 °
Wind Speed
  04 kt (5 mph)
Wind Gust
  00 kt (0 mph)
Altimeter
29.89 in
Visibility
1 3/4 SM
Temperature
-02° C
28° F
Dewpoint
-02° C
28° F
Humidity
100%
1hr Rain Fall
00.00 in.
24hr Rain Fall
00.00 in.
Sky Condition
Missing
IFR

METAR KPQN 251142Z 36004KT 1 3/4SM BR M02/M02 A2989 RMK AO2

FAA Disclaimer: The data displayed is for advisory purposes only and is not to be used for flight planning or operations.
Missing Cloud Data